Randy J. Adams — WDG6297 — position and weather

sailwx.info

Track history (hours):
 
Tides and Currents Weather Stations Pressure Air Temp Water Temp Dewpoint Dewpoint Depression Visibility Wind Speed Wind Dir Waves Ship Positions

Randy J. Adams

Owner: Blessey Enterprises, Inc., Harahan, LA. More information available from US FCC via Universal Licensing System and Coast Guard Vessel Documentation Center.

Last reported at 2018-Jun-19 04:18 UTC. Time now 2018-Jul-20 01:00 UTC.
Position N 33°12' W 091°06'.
Warning: this ship's position is 30 days out of date.

Length 26 m; draft 2.7 m.

Type: Towing. MMSI: 367555480.

Date/timePositionNaut miles runAvg speedWind from/ knotsBaromVisibWave heightAir tempDewpointWater temp
2018-Jun-19 04:18N 33°12' W 091°06'3 4.8
2018-Jun-19 03:34N 33°09' W 091°05'6 4.4
2018-Jun-19 02:14N 33°05' W 091°10'2 5.5
2018-Jun-19 01:56N 33°03' W 091°09'26 3.3
2018-Jun-18 18:08N 32°37' W 091°09'0 1.7
2018-Jun-18 17:59N 32°37' W 091°09'0 0.1
2018-Jun-18 17:30N 32°37' W 091°09'0 0.0
2018-Jun-18 17:00N 32°37' W 091°09'0 0.0
2018-Jun-18 16:30N 32°37' W 091°09'0 0.0
2018-Jun-18 16:00N 32°37' W 091°09'2 3.5
2018-Jun-18 15:30N 32°36' W 091°08'3 5.0
2018-Jun-18 14:58N 32°34' W 091°06'4 5.2
2018-Jun-18 14:09N 32°30' W 091°07'1 5.8
2018-Jun-18 14:00N 32°29' W 091°07'3 5.5
2018-Jun-18 13:30N 32°27' W 091°05'3 5.6
2018-Jun-18 13:00N 32°26' W 091°01'2 4.8
2018-Jun-18 12:30N 32°24' W 090°59'3 5.0
2018-Jun-18 12:00N 32°22' W 091°00'3 5.1
2018-Jun-18 11:30N 32°21' W 090°58'2 5.0
2018-Jun-18 11:00N 32°20' W 090°55'2 3.9
2018-Jun-18 10:30N 32°18' W 090°55'2 3.3
2018-Jun-18 10:00N 32°17' W 090°57'2 5.0
2018-Jun-18 09:30N 32°15' W 090°58'2 4.9
2018-Jun-18 09:00N 32°13' W 090°59'3 5.1
2018-Jun-18 08:30N 32°10' W 090°60'2 4.9
2018-Jun-18 08:00N 32°08' W 091°01'2 4.5
2018-Jun-18 07:30N 32°08' W 091°03'2 4.8
2018-Jun-18 07:00N 32°08' W 091°06'5 4.6
2018-Jun-18 05:53N 32°03' W 091°04'3 6.2
2018-Jun-18 05:26N 32°01' W 091°05'6 5.0
2018-Jun-18 04:14N 31°58' W 091°11'  
Track history (hours):
 
Tides and Currents Weather Stations Pressure Air Temp Water Temp Dewpoint Dewpoint Depression Visibility Wind Speed Wind Dir Waves Ship Positions

Randy J. Adams

Owner: Blessey Enterprises, Inc., Harahan, LA. More information available from US FCC via Universal Licensing System and Coast Guard Vessel Documentation Center.

Last reported at 2018-Jun-19 04:18 UTC. Time now 2018-Jul-20 01:00 UTC.
Position N 33°12' W 091°06'.
Warning: this ship's position is 30 days out of date.

Length 26 m; draft 2.7 m.

Type: Towing. MMSI: 367555480.

Date/timePositionNaut miles runAvg speedWind from/ knotsBaromVisibWave heightAir tempDewpointWater temp
2018-Jun-19 04:18N 33°12' W 091°06'3 4.8
2018-Jun-19 03:34N 33°09' W 091°05'6 4.4
2018-Jun-19 02:14N 33°05' W 091°10'2 5.5
2018-Jun-19 01:56N 33°03' W 091°09'26 3.3
2018-Jun-18 18:08N 32°37' W 091°09'0 1.7
2018-Jun-18 17:59N 32°37' W 091°09'0 0.1
2018-Jun-18 17:30N 32°37' W 091°09'0 0.0
2018-Jun-18 17:00N 32°37' W 091°09'0 0.0
2018-Jun-18 16:30N 32°37' W 091°09'0 0.0
2018-Jun-18 16:00N 32°37' W 091°09'2 3.5
2018-Jun-18 15:30N 32°36' W 091°08'3 5.0
2018-Jun-18 14:58N 32°34' W 091°06'4 5.2
2018-Jun-18 14:09N 32°30' W 091°07'1 5.8
2018-Jun-18 14:00N 32°29' W 091°07'3 5.5
2018-Jun-18 13:30N 32°27' W 091°05'3 5.6
2018-Jun-18 13:00N 32°26' W 091°01'2 4.8
2018-Jun-18 12:30N 32°24' W 090°59'3 5.0
2018-Jun-18 12:00N 32°22' W 091°00'3 5.1
2018-Jun-18 11:30N 32°21' W 090°58'2 5.0
2018-Jun-18 11:00N 32°20' W 090°55'2 3.9
2018-Jun-18 10:30N 32°18' W 090°55'2 3.3
2018-Jun-18 10:00N 32°17' W 090°57'2 5.0
2018-Jun-18 09:30N 32°15' W 090°58'2 4.9
2018-Jun-18 09:00N 32°13' W 090°59'3 5.1
2018-Jun-18 08:30N 32°10' W 090°60'2 4.9
2018-Jun-18 08:00N 32°08' W 091°01'2 4.5
2018-Jun-18 07:30N 32°08' W 091°03'2 4.8
2018-Jun-18 07:00N 32°08' W 091°06'5 4.6
2018-Jun-18 05:53N 32°03' W 091°04'3 6.2
2018-Jun-18 05:26N 32°01' W 091°05'6 5.0
2018-Jun-18 04:14N 31°58' W 091°11'  

Dump ship's entire track history